Time;durP1;ratioP1;P1;durP2;ratioP2;P2;SDS_P1;SDS_P2;PMS_P1;PMS_P2;Temp;Humidity;BMP_temperature;BMP_pressure;BME280_temperature;BME280_humidity;BME280_pressure;Samples;Min_cycle;Max_cycle;Signal;HPM_P1;HPM_P2
2023/05/06 00:01:22;;;;;;;54.43;19.70;;;10.40;1.00;;;;;;4933203;29;20253;-66
2023/05/06 00:03:49;;;;;;;69.93;21.10;;;10.40;1.00;;;;;;4936964;29;20250;-65
2023/05/06 00:06:16;;;;;;;71.27;20.97;;;10.70;1.00;;;;;;4938812;29;20245;-65
2023/05/06 00:08:44;;;;;;;59.63;19.87;;;10.80;1.00;;;;;;4949316;28;20278;-65
2023/05/06 00:11:11;;;;;;;37.33;17.87;;;10.80;1.00;;;;;;4936726;28;20691;-66
2023/05/06 00:13:38;;;;;;;46.80;20.10;;;10.90;1.00;;;;;;4936647;29;20623;-65
2023/05/06 00:16:05;;;;;;;65.87;21.00;;;10.80;1.00;;;;;;4932889;29;20299;-66
2023/05/06 00:18:32;;;;;;;98.93;22.63;;;10.70;1.00;;;;;;4926098;29;20210;-65
2023/05/06 00:20:59;;;;;;;75.33;22.37;;;10.60;1.00;;;;;;4939080;29;20207;-66
2023/05/06 00:23:26;;;;;;;119.47;24.30;;;10.60;1.00;;;;;;4939114;29;20686;-65
2023/05/06 00:25:53;;;;;;;76.43;24.27;;;10.40;1.00;;;;;;4940249;28;20240;-65
2023/05/06 00:28:20;;;;;;;100.57;23.90;;;10.50;99.90;;;;;;4934166;29;20223;-65
2023/05/06 00:30:47;;;;;;;108.87;23.70;;;10.40;99.90;;;;;;4947254;29;20796;-64
2023/05/06 00:33:15;;;;;;;106.60;25.77;;;10.30;1.00;;;;;;4950333;29;20191;-63
2023/05/06 00:35:42;;;;;;;85.23;25.73;;;10.50;1.00;;;;;;4935307;29;20230;-63
2023/05/06 00:38:11;;;;;;;107.80;26.80;;;10.70;1.00;;;;;;4948235;29;20187;-64
2023/05/06 00:40:39;;;;;;;74.57;25.47;;;10.80;1.00;;;;;;4929519;29;20236;-64
2023/05/06 00:43:06;;;;;;;74.17;26.93;;;10.80;1.00;;;;;;4946594;29;20199;-64
2023/05/06 00:45:33;;;;;;;64.97;25.43;;;10.90;1.00;;;;;;4942278;28;20623;-64
2023/05/06 00:48:01;;;;;;;61.97;25.17;;;10.90;1.00;;;;;;4941389;28;20222;-63
2023/05/06 00:50:30;;;;;;;70.13;24.93;;;11.00;99.90;;;;;;4947637;29;20786;-64
2023/05/06 00:52:58;;;;;;;73.93;23.83;;;11.10;99.90;;;;;;4933376;29;20195;-65
2023/05/06 00:55:26;;;;;;;65.53;23.20;;;11.10;99.90;;;;;;4945914;28;20278;-65
2023/05/06 00:57:53;;;;;;;90.70;27.60;;;11.00;99.90;;;;;;4948341;28;20211;-64
2023/05/06 01:00:25;;;;;;;88.77;26.43;;;10.90;1.00;;;;;;4955682;28;20214;-63
2023/05/06 01:02:52;;;;;;;104.57;28.30;;;10.90;1.00;;;;;;4936777;28;20241;-64
2023/05/06 01:05:22;;;;;;;96.97;26.83;;;11.00;1.00;;;;;;4952549;28;20210;-65
2023/05/06 01:08:10;;;;;;;78.60;27.00;;;11.10;1.00;;;;;;4942923;28;20207;-65
2023/05/06 01:10:53;;;;;;;63.50;26.63;;;11.10;1.00;;;;;;4939040;29;20638;-64
2023/05/06 01:13:35;;;;;;;53.53;28.27;;;11.10;1.00;;;;;;4933305;29;20203;-65
2023/05/06 01:16:03;;;;;;;67.10;28.17;;;11.40;1.00;;;;;;4946544;28;20548;-64
2023/05/06 01:18:31;;;;;;;76.20;26.30;;;11.40;1.00;;;;;;4934716;29;20742;-65
2023/05/06 01:21:00;;;;;;;68.83;25.00;;;11.40;1.00;;;;;;4932962;29;20214;-65
2023/05/06 01:23:27;;;;;;;74.87;29.13;;;11.30;1.00;;;;;;4945748;29;20196;-64
2023/05/06 01:25:54;;;;;;;86.87;25.60;;;11.30;1.00;;;;;;4942830;29;20779;-65
2023/05/06 01:28:21;;;;;;;77.90;25.07;;;11.30;1.00;;;;;;4937394;29;20227;-67
2023/05/06 01:31:04;;;;;;;45.77;24.93;;;11.30;1.00;;;;;;4935022;29;20319;-67
2023/05/06 01:33:40;;;;;;;84.13;24.33;;;11.30;1.00;;;;;;4947746;28;20219;-66
2023/05/06 01:36:37;;;;;;;91.03;24.83;;;11.30;1.00;;;;;;4934133;28;20195;-66
2023/05/06 01:39:25;;;;;;;151.97;27.37;;;11.10;99.90;;;;;;4933620;29;20566;-64
2023/05/06 01:41:56;;;;;;;125.77;26.50;;;10.90;1.00;;;;;;4932594;29;20206;-65
2023/05/06 01:44:26;;;;;;;103.00;25.93;;;10.60;1.00;;;;;;4935269;29;20199;-65
2023/05/06 01:46:55;;;;;;;107.63;28.83;;;10.80;1.00;;;;;;4932126;29;20207;-64
2023/05/06 01:49:23;;;;;;;76.63;29.20;;;10.90;1.00;;;;;;4938962;29;20718;-64
2023/05/06 01:51:53;;;;;;;74.27;27.20;;;11.00;1.00;;;;;;4952211;29;20297;-65
2023/05/06 01:54:20;;;;;;;90.87;26.30;;;11.00;1.00;;;;;;4936309;29;20195;-64
2023/05/06 01:56:47;;;;;;;88.70;27.30;;;10.90;1.00;;;;;;4946457;29;20269;-65
2023/05/06 01:59:14;;;;;;;103.20;27.13;;;10.80;1.00;;;;;;4935069;29;20258;-65
2023/05/06 02:01:41;;;;;;;72.87;27.07;;;10.80;1.00;;;;;;4950401;29;20327;-65
2023/05/06 02:04:08;;;;;;;100.73;28.47;;;10.80;1.00;;;;;;4935323;29;20198;-66
2023/05/06 02:06:35;;;;;;;86.17;28.07;;;10.70;1.00;;;;;;4934696;29;20294;-66
2023/05/06 02:09:03;;;;;;;99.20;27.60;;;10.60;1.00;;;;;;4933084;29;20247;-65
2023/05/06 02:11:33;;;;;;;109.87;26.60;;;10.50;1.00;;;;;;4938713;29;20207;-65
2023/05/06 02:14:03;;;;;;;92.13;29.00;;;10.60;1.00;;;;;;4928954;29;20203;-64
2023/05/06 02:16:32;;;;;;;87.70;28.27;;;10.60;1.00;;;;;;4916587;29;20210;-64
2023/05/06 02:18:59;;;;;;;79.43;28.63;;;10.80;1.00;;;;;;4925485;29;20207;-64
2023/05/06 02:21:27;;;;;;;69.33;28.00;;;10.80;1.00;;;;;;4955174;28;20758;-63
2023/05/06 02:23:54;;;;;;;84.43;28.73;;;10.80;1.00;;;;;;4933488;29;20214;-64
2023/05/06 02:26:21;;;;;;;102.57;29.40;;;10.70;63.80;;;;;;4934931;29;20207;-62
2023/05/06 02:28:48;;;;;;;94.17;29.97;;;10.70;99.90;;;;;;4932183;29;20195;-63
2023/05/06 02:31:15;;;;;;;60.87;27.83;;;10.70;99.90;;;;;;4935240;29;20234;-64
2023/05/06 02:33:44;;;;;;;60.77;27.47;;;10.70;99.90;;;;;;4946582;29;20291;-63
2023/05/06 02:36:11;;;;;;;49.33;29.17;;;10.80;27.20;;;;;;4949424;29;20227;-64
2023/05/06 02:38:38;;;;;;;57.07;26.63;;;11.00;57.70;;;;;;4946805;29;20199;-63
2023/05/06 02:41:05;;;;;;;64.17;26.67;;;11.00;1.00;;;;;;4943614;29;20202;-63
2023/05/06 02:43:32;;;;;;;68.57;26.47;;;11.00;1.00;;;;;;4948486;28;20261;-65
2023/05/06 02:45:59;;;;;;;39.63;24.33;;;11.00;1.00;;;;;;4930996;29;20208;-63
2023/05/06 02:48:26;;;;;;;60.70;25.23;;;11.10;1.00;;;;;;4945161;29;20608;-64
2023/05/06 02:50:53;;;;;;;53.70;26.93;;;11.20;1.00;;;;;;4931838;29;20243;-61
2023/05/06 02:53:20;;;;;;;67.83;25.40;;;11.20;1.00;;;;;;4948778;29;20659;-61
2023/05/06 02:55:47;;;;;;;72.67;25.97;;;11.20;1.00;;;;;;4938537;29;20686;-60
2023/05/06 02:58:15;;;;;;;80.73;28.17;;;11.20;1.00;;;;;;4949170;29;20230;-64
2023/05/06 03:00:42;;;;;;;78.80;26.47;;;11.10;1.00;;;;;;4945057;29;20227;-67
2023/05/06 03:03:09;;;;;;;76.00;26.77;;;11.00;1.00;;;;;;4930675;29;20254;-65
2023/05/06 03:05:36;;;;;;;69.80;27.10;;;10.90;1.00;;;;;;4943224;29;20195;-66
2023/05/06 03:08:03;;;;;;;65.87;25.63;;;11.00;1.00;;;;;;4936196;29;20203;-66
2023/05/06 03:10:31;;;;;;;105.13;25.83;;;11.10;1.00;;;;;;4944992;29;20199;-66
2023/05/06 03:12:59;;;;;;;85.63;26.00;;;10.90;1.00;;;;;;4936442;29;20208;-68
2023/05/06 03:15:27;;;;;;;58.73;24.47;;;10.80;1.00;;;;;;4936990;29;20236;-64
2023/05/06 03:17:54;;;;;;;69.90;23.60;;;10.80;1.00;;;;;;4946150;28;20210;-63
2023/05/06 03:20:22;;;;;;;86.03;25.17;;;10.90;1.00;;;;;;4949165;29;20206;-64
2023/05/06 03:22:54;;;;;;;70.17;24.13;;;10.80;1.00;;;;;;4936346;28;20517;-63
2023/05/06 03:25:22;;;;;;;108.20;25.67;;;10.80;1.00;;;;;;4931284;28;20204;-63
2023/05/06 03:27:49;;;;;;;88.50;25.73;;;10.70;1.00;;;;;;4942524;28;20221;-60
2023/05/06 03:30:20;;;;;;;100.33;26.70;;;10.70;1.00;;;;;;4933681;29;20226;-62
2023/05/06 03:32:49;;;;;;;84.60;27.50;;;10.60;99.90;;;;;;4946097;28;20219;-62
2023/05/06 03:35:22;;;;;;;76.10;26.60;;;10.60;1.00;;;;;;4934092;29;20195;-61
2023/05/06 03:37:54;;;;;;;98.37;28.00;;;10.80;1.00;;;;;;4935494;29;20202;-61
2023/05/06 03:40:23;;;;;;;120.23;28.03;;;10.80;1.00;;;;;;4931189;29;20698;-62
2023/05/06 03:42:51;;;;;;;102.73;28.20;;;10.80;1.00;;;;;;4949224;29;20229;-63
2023/05/06 03:45:21;;;;;;;143.63;29.20;;;10.70;99.90;;;;;;4932360;28;20201;-63
2023/05/06 03:47:49;;;;;;;80.63;26.03;;;10.70;99.90;;;;;;4924095;29;20214;-62
2023/05/06 03:50:19;;;;;;;115.37;29.70;;;10.90;99.90;;;;;;4950965;29;20698;-62
2023/05/06 03:52:46;;;;;;;114.53;30.47;;;10.90;99.90;;;;;;4939424;29;20254;-63
2023/05/06 03:55:13;;;;;;;161.70;33.30;;;11.00;99.90;;;;;;4925807;29;20207;-62
2023/05/06 03:57:40;;;;;;;203.33;33.00;;;11.00;99.90;;;;;;4949972;29;20250;-64
2023/05/06 04:00:08;;;;;;;121.07;33.63;;;11.00;99.90;;;;;;4944162;28;20198;-63
2023/05/06 04:02:42;;;;;;;124.77;30.60;;;11.10;99.90;;;;;;4939981;28;20238;-62
2023/05/06 04:05:16;;;;;;;147.10;31.30;;;11.00;1.00;;;;;;4943879;29;20212;-62
2023/05/06 04:07:44;;;;;;;181.33;30.87;;;10.90;99.90;;;;;;4930376;29;20567;-63
2023/05/06 04:10:11;;;;;;;171.53;31.83;;;10.80;99.90;;;;;;4930408;28;20648;-63
2023/05/06 04:12:41;;;;;;;158.97;30.27;;;10.70;99.90;;;;;;4930084;29;20239;-63
2023/05/06 04:15:09;;;;;;;136.00;27.87;;;10.70;99.90;;;;;;4932714;29;20582;-62
2023/05/06 04:17:37;;;;;;;146.57;29.70;;;10.90;99.90;;;;;;4945113;29;20247;-62
2023/05/06 04:20:06;;;;;;;161.23;30.37;;;10.90;99.90;;;;;;4929399;29;20214;-62
2023/05/06 04:22:33;;;;;;;141.77;30.17;;;10.90;28.40;;;;;;4934438;29;21009;-63
2023/05/06 04:25:00;;;;;;;162.67;32.20;;;10.90;99.90;;;;;;4923862;29;20203;-63
2023/05/06 04:27:30;;;;;;;154.73;33.90;;;10.90;1.00;;;;;;4914403;29;20214;-62
2023/05/06 04:29:59;;;;;;;180.07;33.93;;;11.00;1.00;;;;;;4933403;29;20199;-64
2023/05/06 04:32:28;;;;;;;171.47;31.87;;;10.90;1.00;;;;;;4932926;29;20217;-64
2023/05/06 04:34:56;;;;;;;125.73;28.43;;;10.90;1.00;;;;;;4945305;29;20195;-62
2023/05/06 04:37:24;;;;;;;187.83;32.20;;;10.90;1.00;;;;;;4933183;28;20629;-64
2023/05/06 04:39:58;;;;;;;157.83;30.67;;;10.80;15.50;;;;;;4939482;28;20192;-64
2023/05/06 04:42:25;;;;;;;201.73;35.30;;;10.80;99.90;;;;;;4949204;29;20203;-65
2023/05/06 04:45:04;;;;;;;106.27;30.33;;;10.90;99.90;;;;;;4933580;29;20299;-62
2023/05/06 04:47:33;;;;;;;181.07;33.10;;;11.00;99.90;;;;;;4950380;28;20202;-65
2023/05/06 04:50:01;;;;;;;168.03;33.57;;;11.20;99.90;;;;;;4926639;29;20207;-64
2023/05/06 04:52:29;;;;;;;230.63;33.70;;;11.20;99.90;;;;;;4928751;29;20884;-64
2023/05/06 04:54:56;;;;;;;193.10;32.17;;;11.30;1.00;;;;;;4935003;29;20593;-66
2023/05/06 04:57:23;;;;;;;109.83;29.53;;;11.30;1.00;;;;;;4943284;29;20308;-63
2023/05/06 04:59:52;;;;;;;160.40;31.03;;;11.40;1.00;;;;;;4936077;29;20562;-63
2023/05/06 05:02:19;;;;;;;151.40;33.03;;;11.50;99.90;;;;;;4948635;28;20243;-62
2023/05/06 05:04:46;;;;;;;118.10;29.83;;;11.40;99.90;;;;;;4930853;29;20668;-64
2023/05/06 05:07:14;;;;;;;180.03;33.10;;;11.40;99.90;;;;;;4921079;29;20758;-65
2023/05/06 05:09:41;;;;;;;209.37;34.27;;;11.30;84.50;;;;;;4942489;29;20202;-64
2023/05/06 05:12:08;;;;;;;153.07;33.00;;;11.20;99.90;;;;;;4928162;29;20701;-66
2023/05/06 05:14:41;;;;;;;128.53;31.57;;;11.30;99.90;;;;;;4937263;29;20203;-64
2023/05/06 05:17:10;;;;;;;106.70;31.20;;;11.30;14.60;;;;;;4932819;29;20235;-63
2023/05/06 05:19:38;;;;;;;121.67;30.57;;;11.30;1.00;;;;;;4932667;29;20682;-63
2023/05/06 05:22:05;;;;;;;161.30;31.03;;;11.30;1.00;;;;;;4919903;29;20235;-64
2023/05/06 05:24:32;;;;;;;175.23;34.77;;;11.10;99.90;;;;;;4933234;29;20199;-64
2023/05/06 05:27:00;;;;;;;123.20;33.80;;;11.00;1.00;;;;;;4919701;29;20216;-64
2023/05/06 05:29:27;;;;;;;198.20;35.87;;;11.00;99.90;;;;;;4936268;29;20235;-64
2023/05/06 05:31:54;;;;;;;157.37;32.80;;;11.00;1.00;;;;;;4932359;29;20228;-63
2023/05/06 05:34:22;;;;;;;248.87;35.97;;;10.90;1.00;;;;;;4932354;29;20299;-61
2023/05/06 05:36:50;;;;;;;157.67;36.03;;;11.10;1.00;;;;;;4926506;29;20200;-63
2023/05/06 05:39:17;;;;;;;146.70;35.63;;;11.30;1.00;;;;;;4934366;29;20760;-63
2023/05/06 05:41:46;;;;;;;131.37;34.90;;;11.30;99.90;;;;;;4932344;29;20332;-63
2023/05/06 05:44:15;;;;;;;164.93;32.83;;;11.40;99.90;;;;;;4947128;29;20593;-63
2023/05/06 05:46:42;;;;;;;154.60;34.20;;;11.50;1.00;;;;;;4934446;29;20234;-64
2023/05/06 05:49:12;;;;;;;131.70;33.17;;;11.40;1.00;;;;;;4908597;29;20204;-62
2023/05/06 05:51:40;;;;;;;141.27;33.17;;;11.50;1.00;;;;;;4934939;29;20301;-63
2023/05/06 05:54:09;;;;;;;157.03;37.03;;;11.40;1.00;;;;;;4932538;29;20747;-62
2023/05/06 05:56:36;;;;;;;158.90;36.43;;;11.40;1.00;;;;;;4928724;29;20280;-63
2023/05/06 05:59:04;;;;;;;197.30;39.17;;;11.40;1.00;;;;;;4924252;29;20211;-64
2023/05/06 06:01:31;;;;;;;270.90;38.10;;;11.40;1.00;;;;;;4921139;29;20408;-65
2023/05/06 06:03:58;;;;;;;232.33;36.50;;;11.30;1.00;;;;;;4913727;29;20226;-65
2023/05/06 06:06:26;;;;;;;104.23;38.63;;;11.60;1.00;;;;;;4932566;29;20196;-65
2023/05/06 06:08:54;;;;;;;148.57;37.03;;;11.80;1.00;;;;;;4931667;29;20204;-64
2023/05/06 06:11:21;;;;;;;154.13;37.57;;;11.80;99.90;;;;;;4914963;29;20196;-64
2023/05/06 06:13:49;;;;;;;129.33;37.07;;;11.70;99.90;;;;;;4926159;29;20274;-64
2023/05/06 06:16:16;;;;;;;100.13;37.67;;;11.70;99.90;;;;;;4930466;29;20286;-64
2023/05/06 06:18:43;;;;;;;116.93;37.33;;;11.80;99.90;;;;;;4947463;29;20222;-64
2023/05/06 06:21:10;;;;;;;104.90;38.60;;;11.70;99.90;;;;;;4933184;29;20216;-66
2023/05/06 06:23:38;;;;;;;90.53;36.17;;;11.80;99.90;;;;;;4907087;29;20208;-65
2023/05/06 06:26:05;;;;;;;80.57;36.53;;;11.90;99.90;;;;;;4931255;29;20203;-64
2023/05/06 06:28:32;;;;;;;110.50;39.47;;;12.00;99.90;;;;;;4932744;29;20219;-66
2023/05/06 06:31:00;;;;;;;119.87;37.33;;;12.20;58.60;;;;;;4935316;29;20215;-65
2023/05/06 06:33:28;;;;;;;77.33;39.10;;;12.10;25.70;;;;;;4914943;29;20670;-65
2023/05/06 06:35:54;;;;;;;89.20;43.57;;;12.50;53.50;;;;;;4915311;29;20656;-65
2023/05/06 06:38:21;;;;;;;66.70;37.37;;;12.20;47.70;;;;;;4927216;29;20191;-63
2023/05/06 06:40:49;;;;;;;61.43;36.43;;;12.70;14.70;;;;;;4938060;29;20308;-64
2023/05/06 06:43:18;;;;;;;60.97;35.30;;;12.80;1.00;;;;;;4942581;28;20676;-63
2023/05/06 06:45:58;;;;;;;64.90;35.10;;;12.80;1.00;;;;;;4929829;29;20219;-65
2023/05/06 06:48:25;;;;;;;61.50;35.00;;;12.80;1.00;;;;;;4934884;29;20227;-64
2023/05/06 06:50:52;;;;;;;57.97;34.97;;;13.10;1.00;;;;;;4927101;29;20207;-65
2023/05/06 06:53:19;;;;;;;58.67;36.13;;;13.20;1.00;;;;;;4920349;29;20271;-65
2023/05/06 06:55:46;;;;;;;58.60;37.13;;;13.30;1.00;;;;;;4933351;29;20200;-64
2023/05/06 06:58:13;;;;;;;51.87;34.40;;;13.40;1.00;;;;;;4923926;29;20230;-66
2023/05/06 07:00:41;;;;;;;54.50;35.97;;;13.40;1.00;;;;;;4915128;29;20220;-66
2023/05/06 07:03:08;;;;;;;48.70;32.37;;;13.80;1.00;;;;;;4950085;29;20226;-63
2023/05/06 07:05:35;;;;;;;42.53;31.53;;;14.50;1.00;;;;;;4938706;29;20785;-63
2023/05/06 07:08:02;;;;;;;40.90;31.23;;;14.80;1.00;;;;;;4944483;29;20291;-64
2023/05/06 07:10:29;;;;;;;40.90;30.40;;;15.40;1.00;;;;;;4942168;29;20250;-65
2023/05/06 07:12:57;;;;;;;37.97;29.00;;;15.70;1.00;;;;;;4944124;28;20273;-63
2023/05/06 07:15:24;;;;;;;39.58;29.70;;;16.20;1.00;;;;;;4947617;29;20197;-64
2023/05/06 07:17:51;;;;;;;30.88;24.88;;;16.60;1.00;;;;;;4937504;29;20242;-63
2023/05/06 07:20:18;;;;;;;28.00;24.13;;;18.60;1.00;;;;;;4949747;29;20203;-64
2023/05/06 07:22:45;;;;;;;23.20;20.50;;;22.80;1.00;;;;;;4943881;29;20195;-65
2023/05/06 07:25:12;;;;;;;22.33;19.85;;;21.90;1.00;;;;;;4948286;29;20195;-65
2023/05/06 07:27:39;;;;;;;23.15;20.75;;;22.50;1.00;;;;;;4949296;29;20208;-66
2023/05/06 07:30:07;;;;;;;21.98;19.67;;;24.20;1.00;;;;;;4936553;29;20206;-63
2023/05/06 07:32:34;;;;;;;20.48;18.42;;;27.00;1.00;;;;;;4937203;29;20704;-63
2023/05/06 07:35:02;;;;;;;21.75;19.17;;;27.90;1.00;;;;;;4950648;28;20663;-63
2023/05/06 07:37:29;;;;;;;19.90;17.77;;;28.40;1.00;;;;;;4949741;28;20190;-62
2023/05/06 07:39:57;;;;;;;18.92;16.92;;;28.80;1.00;;;;;;4929788;29;20731;-61
2023/05/06 07:42:24;;;;;;;20.33;18.40;;;29.70;1.00;;;;;;4937428;29;20217;-62
2023/05/06 07:44:51;;;;;;;20.98;18.77;;;28.20;1.00;;;;;;4942123;29;20200;-62
2023/05/06 07:47:31;;;;;;;20.55;18.50;;;29.80;1.00;;;;;;4945749;28;20656;-63
2023/05/06 07:49:59;;;;;;;17.15;15.48;;;30.20;1.00;;;;;;4948349;29;20626;-62
2023/05/06 07:52:26;;;;;;;16.20;14.70;;;30.60;1.00;;;;;;4948754;29;20270;-62
2023/05/06 07:54:53;;;;;;;17.55;15.85;;;28.20;1.00;;;;;;4949127;29;20663;-61
2023/05/06 07:57:20;;;;;;;18.73;17.02;;;27.70;1.00;;;;;;4948418;29;20269;-59
2023/05/06 07:59:49;;;;;;;17.25;15.65;;;26.20;1.00;;;;;;4948117;29;20838;-62
2023/05/06 08:02:17;;;;;;;17.77;15.98;;;27.80;1.00;;;;;;4944856;28;20710;-62
2023/05/06 08:04:45;;;;;;;17.77;16.08;;;25.60;1.00;;;;;;4950217;28;20197;-64
2023/05/06 08:07:13;;;;;;;16.25;14.55;;;25.40;1.00;;;;;;4947025;29;20735;-63
2023/05/06 08:09:40;;;;;;;16.50;14.90;;;29.00;1.00;;;;;;4947821;29;20258;-63
2023/05/06 08:12:07;;;;;;;15.27;13.90;;;29.90;1.00;;;;;;4947786;29;20196;-63
2023/05/06 08:14:34;;;;;;;14.68;13.25;;;26.60;1.00;;;;;;4941579;29;20199;-63
2023/05/06 08:17:01;;;;;;;14.90;13.32;;;28.00;1.00;;;;;;4940685;29;20349;-63
2023/05/06 08:19:28;;;;;;;14.77;13.38;;;28.50;1.00;;;;;;4941448;29;20215;-64
2023/05/06 08:21:55;;;;;;;13.30;12.05;;;29.80;1.00;;;;;;4923890;29;20259;-64
2023/05/06 08:24:22;;;;;;;13.52;12.13;;;30.10;1.00;;;;;;4936652;29;20253;-62
2023/05/06 08:26:50;;;;;;;12.45;11.35;;;29.80;1.00;;;;;;4947985;29;20676;-62
2023/05/06 08:29:18;;;;;;;13.02;11.70;;;31.90;1.00;;;;;;4946736;29;20242;-61
2023/05/06 08:31:45;;;;;;;11.95;10.85;;;32.00;1.00;;;;;;4947303;29;20229;-61
2023/05/06 08:34:12;;;;;;;11.10;10.00;;;27.90;1.00;;;;;;4944516;29;20218;-61
2023/05/06 08:36:39;;;;;;;12.45;10.90;;;30.50;1.00;;;;;;4948900;29;20230;-61
2023/05/06 08:39:06;;;;;;;11.18;10.18;;;27.20;1.00;;;;;;4953570;29;20282;-61
2023/05/06 08:41:34;;;;;;;10.15;9.25;;;30.60;1.00;;;;;;4941765;29;20203;-62
2023/05/06 08:44:04;;;;;;;9.15;8.35;;;32.70;1.00;;;;;;4945857;28;20203;-61
2023/05/06 08:46:31;;;;;;;9.70;8.80;;;33.50;1.00;;;;;;4951102;29;20206;-64
2023/05/06 08:48:58;;;;;;;10.52;9.50;;;26.70;1.00;;;;;;4951413;29;20277;-62
2023/05/06 08:51:30;;;;;;;8.65;7.85;;;26.00;1.00;;;;;;4927479;29;20298;-62
2023/05/06 08:54:00;;;;;;;8.57;7.78;;;28.20;1.00;;;;;;4944583;28;20294;-62
2023/05/06 08:56:31;;;;;;;8.85;8.02;;;31.90;1.00;;;;;;4946875;28;20204;-62
2023/05/06 08:59:00;;;;;;;8.82;8.10;;;35.70;1.00;;;;;;4944898;28;20259;-62
2023/05/06 09:01:27;;;;;;;9.57;8.57;;;35.20;1.00;;;;;;4951203;28;20881;-62
2023/05/06 09:03:56;;;;;;;10.23;9.23;;;32.10;1.00;;;;;;4951395;28;20562;-62
2023/05/06 09:06:24;;;;;;;8.85;8.05;;;29.90;1.00;;;;;;4950346;29;20755;-63
2023/05/06 09:08:51;;;;;;;9.23;8.07;;;32.80;1.00;;;;;;4925317;29;20285;-64
2023/05/06 09:11:27;;;;;;;9.38;8.48;;;32.40;1.00;;;;;;4948132;28;20253;-62
2023/05/06 09:14:09;;;;;;;9.00;8.15;;;31.40;1.00;;;;;;4944155;29;20214;-62
2023/05/06 09:16:36;;;;;;;8.20;7.40;;;30.90;1.00;;;;;;4946429;28;20203;-62
2023/05/06 09:19:03;;;;;;;11.20;8.90;;;32.50;1.00;;;;;;4944706;29;20199;-62
2023/05/06 09:21:45;;;;;;;10.43;9.40;;;32.70;1.00;;;;;;4939496;29;20229;-62
2023/05/06 09:24:14;;;;;;;11.48;8.77;;;30.30;1.00;;;;;;4941794;29;20200;-62
2023/05/06 09:26:42;;;;;;;9.98;9.00;;;32.10;1.00;;;;;;4952212;29;20295;-61
2023/05/06 09:29:09;;;;;;;10.18;9.20;;;30.30;1.00;;;;;;4948655;29;20281;-62
2023/05/06 09:31:44;;;;;;;9.10;8.30;;;29.30;1.00;;;;;;4939559;28;20544;-62
2023/05/06 09:34:13;;;;;;;9.38;8.48;;;29.80;1.00;;;;;;4950626;29;20257;-62
2023/05/06 09:36:40;;;;;;;8.68;7.72;;;31.00;1.00;;;;;;4942253;29;20246;-61
2023/05/06 09:39:08;;;;;;;8.25;7.45;;;29.60;1.00;;;;;;4945680;28;20259;-61
2023/05/06 09:41:35;;;;;;;8.48;7.57;;;31.50;1.00;;;;;;4945671;29;20685;-61
2023/05/06 09:44:03;;;;;;;7.90;7.18;;;33.40;1.00;;;;;;4942437;29;20246;-62
2023/05/06 09:46:30;;;;;;;8.68;7.82;;;34.30;1.00;;;;;;4949016;29;20233;-62
2023/05/06 09:48:57;;;;;;;8.73;7.35;;;29.50;1.00;;;;;;4951230;29;20198;-61
2023/05/06 09:51:29;;;;;;;8.48;7.32;;;25.10;1.00;;;;;;4933705;29;20640;-61
2023/05/06 09:53:57;;;;;;;8.95;6.35;;;28.30;1.00;;;;;;4939398;29;20203;-62
2023/05/06 09:56:25;;;;;;;7.40;5.90;;;30.20;1.00;;;;;;4946042;29;20222;-61
2023/05/06 09:58:54;;;;;;;6.60;5.95;;;28.70;1.00;;;;;;4950064;29;20333;-62
2023/05/06 10:01:22;;;;;;;7.32;6.32;;;30.00;1.00;;;;;;4929613;29;20236;-62
2023/05/06 10:04:06;;;;;;;7.18;6.47;;;30.00;1.00;;;;;;4917240;29;20229;-62
2023/05/06 10:06:38;;;;;;;9.27;6.43;;;28.70;1.00;;;;;;4927746;29;20234;-62
2023/05/06 10:09:07;;;;;;;6.57;5.97;;;29.60;1.00;;;;;;4930543;29;20266;-62
2023/05/06 10:11:35;;;;;;;8.43;7.53;;;29.00;1.00;;;;;;4922272;29;20617;-62
2023/05/06 10:14:03;;;;;;;7.65;6.85;;;26.50;1.00;;;;;;4931503;29;20271;-62
2023/05/06 10:16:32;;;;;;;7.05;6.35;;;27.20;1.00;;;;;;4921263;29;20227;-62
2023/05/06 10:19:02;;;;;;;9.55;7.03;;;27.30;1.00;;;;;;4944631;29;20203;-62
2023/05/06 10:21:33;;;;;;;6.80;6.18;;;26.60;1.00;;;;;;4931416;29;20258;-62
2023/05/06 10:24:05;;;;;;;6.70;6.05;;;29.00;1.00;;;;;;4925162;29;20294;-62
2023/05/06 10:26:36;;;;;;;6.55;5.90;;;30.90;1.00;;;;;;4923469;29;20816;-62
2023/05/06 10:29:09;;;;;;;8.23;6.53;;;31.10;1.00;;;;;;4927265;29;20216;-62
2023/05/06 10:31:42;;;;;;;7.43;6.60;;;30.30;1.00;;;;;;4918945;29;20629;-62
2023/05/06 10:34:09;;;;;;;7.18;6.47;;;31.20;1.00;;;;;;4930023;29;20709;-62
2023/05/06 10:36:38;;;;;;;7.40;6.70;;;29.90;1.00;;;;;;4926263;29;20214;-62
2023/05/06 10:39:09;;;;;;;7.45;6.75;;;28.10;1.00;;;;;;4922381;29;20222;-64
2023/05/06 10:41:36;;;;;;;7.05;5.55;;;27.80;1.00;;;;;;4938243;28;20300;-64
2023/05/06 10:44:04;;;;;;;6.18;5.35;;;29.10;1.00;;;;;;4925847;29;20498;-64
2023/05/06 10:46:55;;;;;;;6.65;5.50;;;30.40;1.00;;;;;;4939610;29;20295;-64
2023/05/06 10:49:23;;;;;;;6.47;5.53;;;30.80;1.00;;;;;;4924940;29;20671;-64
2023/05/06 10:52:12;;;;;;;8.02;5.95;;;30.50;1.00;;;;;;4922563;29;20292;-64
2023/05/06 10:54:50;;;;;;;6.63;5.68;;;28.50;1.00;;;;;;4937304;28;20215;-64
2023/05/06 10:57:19;;;;;;;6.60;5.53;;;28.10;1.00;;;;;;4920666;29;20187;-64
2023/05/06 10:59:47;;;;;;;5.55;4.25;;;27.80;1.00;;;;;;4929343;29;20200;-63
2023/05/06 11:02:18;;;;;;;5.60;5.10;;;27.70;1.00;;;;;;4940631;28;20848;-63
2023/05/06 11:04:50;;;;;;;4.32;3.88;;;27.50;1.00;;;;;;4942525;29;20209;-63
2023/05/06 11:07:22;;;;;;;5.03;3.42;;;28.20;1.00;;;;;;4924031;29;20326;-63
2023/05/06 11:09:57;;;;;;;5.28;4.70;;;27.80;1.00;;;;;;4949528;29;20245;-63
2023/05/06 11:12:51;;;;;;;6.75;3.88;;;27.30;1.00;;;;;;4936780;29;20230;-63
2023/05/06 11:15:39;;;;;;;4.38;3.97;;;29.10;1.00;;;;;;4923289;29;20301;-63
2023/05/06 11:18:28;;;;;;;6.93;4.80;;;27.10;1.00;;;;;;4930731;29;20207;-63
2023/05/06 11:21:03;;;;;;;5.97;4.35;;;24.80;1.00;;;;;;4926707;29;20667;-63
2023/05/06 11:23:45;;;;;;;6.07;3.58;;;24.90;1.00;;;;;;4943270;28;20273;-63
2023/05/06 11:26:13;;;;;;;5.20;3.83;;;27.20;1.00;;;;;;4941735;28;20191;-63
2023/05/06 11:28:43;;;;;;;5.43;4.00;;;26.80;1.00;;;;;;4942687;28;20191;-63
2023/05/06 11:31:12;;;;;;;6.32;5.05;;;27.60;1.00;;;;;;4942435;29;20305;-63
2023/05/06 11:33:47;;;;;;;5.68;4.25;;;26.60;1.00;;;;;;4943122;29;20238;-63
2023/05/06 11:36:16;;;;;;;5.57;3.17;;;27.00;1.00;;;;;;4948386;29;20646;-63
2023/05/06 11:38:50;;;;;;;4.05;3.40;;;28.20;1.00;;;;;;4926174;28;20207;-63
2023/05/06 11:41:17;;;;;;;3.85;3.05;;;30.50;1.00;;;;;;4948921;29;20739;-64
2023/05/06 11:43:48;;;;;;;5.53;3.55;;;32.10;1.00;;;;;;4938229;29;20680;-63
2023/05/06 11:46:18;;;;;;;9.30;3.40;;;31.40;1.00;;;;;;4946727;28;20230;-64
2023/05/06 11:48:46;;;;;;;6.05;3.40;;;28.30;1.00;;;;;;4928036;29;20739;-64
2023/05/06 11:51:13;;;;;;;5.32;3.55;;;27.70;1.00;;;;;;4930818;29;20262;-63
2023/05/06 11:53:40;;;;;;;5.32;2.92;;;28.40;1.00;;;;;;4941481;28;20649;-63
2023/05/06 11:56:07;;;;;;;4.57;2.72;;;28.60;1.00;;;;;;4946629;29;20655;-64
2023/05/06 11:58:34;;;;;;;4.13;3.30;;;27.60;1.00;;;;;;4938088;29;20643;-64
2023/05/06 12:01:02;;;;;;;3.30;2.70;;;27.00;1.00;;;;;;4937756;28;20602;-64
2023/05/06 12:03:31;;;;;;;5.68;3.70;;;27.00;1.00;;;;;;4948737;28;20255;-64
2023/05/06 12:05:59;;;;;;;4.00;3.30;;;26.10;1.00;;;;;;4944211;28;20789;-65
2023/05/06 12:08:32;;;;;;;3.70;3.20;;;26.20;1.00;;;;;;4937853;29;20222;-65
2023/05/06 12:11:05;;;;;;;3.53;2.70;;;26.60;1.00;;;;;;4930491;29;20676;-64
2023/05/06 12:13:35;;;;;;;4.85;3.40;;;27.00;1.00;;;;;;4942881;29;20419;-65
2023/05/06 12:16:04;;;;;;;3.83;2.80;;;27.40;1.00;;;;;;4944731;29;20202;-63
2023/05/06 12:18:31;;;;;;;3.10;2.80;;;27.50;1.00;;;;;;4945432;28;20191;-66
2023/05/06 12:21:04;;;;;;;6.18;3.35;;;26.10;1.00;;;;;;4929139;29;20195;-66
2023/05/06 12:23:32;;;;;;;3.83;2.90;;;26.30;1.00;;;;;;4940312;29;20218;-65
2023/05/06 12:26:03;;;;;;;5.78;3.33;;;25.60;1.00;;;;;;4949042;28;20210;-66
2023/05/06 12:28:32;;;;;;;4.82;2.60;;;25.80;1.00;;;;;;4929206;29;20235;-65
2023/05/06 12:31:00;;;;;;;4.70;3.35;;;26.30;1.00;;;;;;4940962;29;20195;-65
2023/05/06 12:33:42;;;;;;;4.95;3.15;;;24.30;1.00;;;;;;4940658;29;20287;-66
2023/05/06 12:36:10;;;;;;;4.72;2.63;;;25.50;1.00;;;;;;4929280;29;20602;-65
2023/05/06 12:38:37;;;;;;;3.25;2.95;;;25.10;1.00;;;;;;4931478;29;20196;-65
2023/05/06 12:41:05;;;;;;;4.03;3.10;;;23.60;1.00;;;;;;4936860;29;20226;-66
2023/05/06 12:43:32;;;;;;;4.28;2.85;;;23.40;1.00;;;;;;4939393;29;20195;-67
2023/05/06 12:46:07;;;;;;;5.32;2.83;;;24.30;1.00;;;;;;4946405;28;20191;-69
2023/05/06 12:48:34;;;;;;;3.40;2.58;;;23.50;1.00;;;;;;4918068;29;20195;-66